sensor_id;sensor_type;location;lat;lon;timestamp;temperature;humidity
37794;DHT22;23632;48.826;15.176;2023-08-01T00:00:47;25.30;55.70
37794;DHT22;23632;48.826;15.176;2023-08-01T00:03:15;25.40;55.90
37794;DHT22;23632;48.826;15.176;2023-08-01T00:05:42;25.40;55.80
37794;DHT22;23632;48.826;15.176;2023-08-01T00:08:12;25.40;55.80
37794;DHT22;23632;48.826;15.176;2023-08-01T00:10:40;25.40;55.90
37794;DHT22;23632;48.826;15.176;2023-08-01T00:13:08;25.30;55.80
37794;DHT22;23632;48.826;15.176;2023-08-01T00:15:35;25.30;55.80
37794;DHT22;23632;48.826;15.176;2023-08-01T00:18:03;25.30;55.80
37794;DHT22;23632;48.826;15.176;2023-08-01T00:20:30;25.30;55.80
37794;DHT22;23632;48.826;15.176;2023-08-01T00:22:58;25.30;55.90
37794;DHT22;23632;48.826;15.176;2023-08-01T00:25:25;25.30;55.80
37794;DHT22;23632;48.826;15.176;2023-08-01T00:27:53;25.30;55.70
37794;DHT22;23632;48.826;15.176;2023-08-01T00:30:20;25.30;55.90
37794;DHT22;23632;48.826;15.176;2023-08-01T00:32:47;25.20;56.00
37794;DHT22;23632;48.826;15.176;2023-08-01T00:35:15;25.30;56.00
37794;DHT22;23632;48.826;15.176;2023-08-01T00:37:43;25.20;56.00
37794;DHT22;23632;48.826;15.176;2023-08-01T00:40:10;25.30;56.00
37794;DHT22;23632;48.826;15.176;2023-08-01T00:42:38;25.20;56.00
37794;DHT22;23632;48.826;15.176;2023-08-01T00:45:06;25.30;56.00
37794;DHT22;23632;48.826;15.176;2023-08-01T00:47:33;25.20;56.00
37794;DHT22;23632;48.826;15.176;2023-08-01T00:50:02;25.30;56.00
37794;DHT22;23632;48.826;15.176;2023-08-01T00:52:29;25.30;56.00
37794;DHT22;23632;48.826;15.176;2023-08-01T00:54:56;25.20;55.90
37794;DHT22;23632;48.826;15.176;2023-08-01T00:57:24;25.20;56.00
37794;DHT22;23632;48.826;15.176;2023-08-01T00:59:51;25.20;56.00
37794;DHT22;23632;48.826;15.176;2023-08-01T01:02:19;25.20;56.00
37794;DHT22;23632;48.826;15.176;2023-08-01T01:04:46;25.20;56.00
37794;DHT22;23632;48.826;15.176;2023-08-01T01:07:16;25.20;56.10
37794;DHT22;23632;48.826;15.176;2023-08-01T01:09:44;25.20;56.30
37794;DHT22;23632;48.826;15.176;2023-08-01T01:12:11;25.20;56.30
37794;DHT22;23632;48.826;15.176;2023-08-01T01:14:38;25.20;56.30
37794;DHT22;23632;48.826;15.176;2023-08-01T01:17:05;25.20;56.40
37794;DHT22;23632;48.826;15.176;2023-08-01T01:19:33;25.20;56.50
37794;DHT22;23632;48.826;15.176;2023-08-01T01:22:02;25.20;56.70
37794;DHT22;23632;48.826;15.176;2023-08-01T01:24:32;25.10;56.70
37794;DHT22;23632;48.826;15.176;2023-08-01T01:27:01;25.20;56.90
37794;DHT22;23632;48.826;15.176;2023-08-01T01:29:31;25.10;57.00
37794;DHT22;23632;48.826;15.176;2023-08-01T01:32:00;25.20;56.90
37794;DHT22;23632;48.826;15.176;2023-08-01T01:34:28;25.20;56.80
37794;DHT22;23632;48.826;15.176;2023-08-01T01:36:55;25.20;56.90
37794;DHT22;23632;48.826;15.176;2023-08-01T01:39:22;25.20;56.80
37794;DHT22;23632;48.826;15.176;2023-08-01T01:41:49;25.20;56.80
37794;DHT22;23632;48.826;15.176;2023-08-01T01:44:16;25.10;56.70
37794;DHT22;23632;48.826;15.176;2023-08-01T01:46:44;25.10;56.80
37794;DHT22;23632;48.826;15.176;2023-08-01T01:49:11;25.10;56.90
37794;DHT22;23632;48.826;15.176;2023-08-01T01:51:38;25.10;56.90
37794;DHT22;23632;48.826;15.176;2023-08-01T01:54:05;25.10;57.00
37794;DHT22;23632;48.826;15.176;2023-08-01T01:56:32;25.10;57.00
37794;DHT22;23632;48.826;15.176;2023-08-01T01:59:00;25.10;57.10
37794;DHT22;23632;48.826;15.176;2023-08-01T02:01:27;25.00;57.10
37794;DHT22;23632;48.826;15.176;2023-08-01T02:03:55;25.00;57.20
37794;DHT22;23632;48.826;15.176;2023-08-01T02:06:22;25.00;57.30
37794;DHT22;23632;48.826;15.176;2023-08-01T02:08:49;25.00;57.50
37794;DHT22;23632;48.826;15.176;2023-08-01T02:11:16;25.00;57.50
37794;DHT22;23632;48.826;15.176;2023-08-01T02:13:43;25.00;57.80
37794;DHT22;23632;48.826;15.176;2023-08-01T02:16:11;25.00;57.80
37794;DHT22;23632;48.826;15.176;2023-08-01T02:18:38;25.10;58.00
37794;DHT22;23632;48.826;15.176;2023-08-01T02:21:05;25.10;58.00
37794;DHT22;23632;48.826;15.176;2023-08-01T02:23:32;25.10;58.00
37794;DHT22;23632;48.826;15.176;2023-08-01T02:26:03;25.10;58.00
37794;DHT22;23632;48.826;15.176;2023-08-01T02:28:30;25.10;58.00
37794;DHT22;23632;48.826;15.176;2023-08-01T02:30:57;25.10;58.10
37794;DHT22;23632;48.826;15.176;2023-08-01T02:33:24;25.10;58.10
37794;DHT22;23632;48.826;15.176;2023-08-01T02:35:52;25.10;58.20
37794;DHT22;23632;48.826;15.176;2023-08-01T02:38:19;25.10;58.30
37794;DHT22;23632;48.826;15.176;2023-08-01T02:40:46;25.00;58.30
37794;DHT22;23632;48.826;15.176;2023-08-01T02:43:13;25.10;58.30
37794;DHT22;23632;48.826;15.176;2023-08-01T02:45:44;25.10;58.20
37794;DHT22;23632;48.826;15.176;2023-08-01T02:48:12;25.10;58.20
37794;DHT22;23632;48.826;15.176;2023-08-01T02:50:39;25.10;58.00
37794;DHT22;23632;48.826;15.176;2023-08-01T02:53:06;25.10;57.90
37794;DHT22;23632;48.826;15.176;2023-08-01T02:55:34;25.10;57.90
37794;DHT22;23632;48.826;15.176;2023-08-01T02:58:01;25.10;57.80
37794;DHT22;23632;48.826;15.176;2023-08-01T03:00:28;25.10;57.90
37794;DHT22;23632;48.826;15.176;2023-08-01T03:02:55;25.00;57.80
37794;DHT22;23632;48.826;15.176;2023-08-01T03:05:23;25.00;57.80
37794;DHT22;23632;48.826;15.176;2023-08-01T03:07:51;25.00;57.80
37794;DHT22;23632;48.826;15.176;2023-08-01T03:10:18;25.00;57.90
37794;DHT22;23632;48.826;15.176;2023-08-01T03:13:01;25.00;57.90
37794;DHT22;23632;48.826;15.176;2023-08-01T03:15:28;25.00;57.90
37794;DHT22;23632;48.826;15.176;2023-08-01T03:17:56;24.90;58.00
37794;DHT22;23632;48.826;15.176;2023-08-01T03:20:23;24.90;58.00
37794;DHT22;23632;48.826;15.176;2023-08-01T03:22:50;24.90;58.00
37794;DHT22;23632;48.826;15.176;2023-08-01T03:25:17;24.90;58.10
37794;DHT22;23632;48.826;15.176;2023-08-01T03:27:44;24.90;58.10
37794;DHT22;23632;48.826;15.176;2023-08-01T03:30:12;24.90;58.10
37794;DHT22;23632;48.826;15.176;2023-08-01T03:32:40;24.90;58.10
37794;DHT22;23632;48.826;15.176;2023-08-01T03:35:08;24.90;58.10
37794;DHT22;23632;48.826;15.176;2023-08-01T03:37:35;24.90;58.30
37794;DHT22;23632;48.826;15.176;2023-08-01T03:40:04;24.90;58.40
37794;DHT22;23632;48.826;15.176;2023-08-01T03:42:31;24.90;58.60
37794;DHT22;23632;48.826;15.176;2023-08-01T03:44:58;24.90;58.80
37794;DHT22;23632;48.826;15.176;2023-08-01T03:47:26;24.90;58.90
37794;DHT22;23632;48.826;15.176;2023-08-01T03:49:53;24.90;58.90
37794;DHT22;23632;48.826;15.176;2023-08-01T03:52:20;24.90;59.10
37794;DHT22;23632;48.826;15.176;2023-08-01T03:54:48;24.90;59.10
37794;DHT22;23632;48.826;15.176;2023-08-01T03:57:15;24.90;59.10
37794;DHT22;23632;48.826;15.176;2023-08-01T03:59:42;24.90;59.20
37794;DHT22;23632;48.826;15.176;2023-08-01T04:02:10;24.90;59.20
37794;DHT22;23632;48.826;15.176;2023-08-01T04:04:37;24.90;59.20
37794;DHT22;23632;48.826;15.176;2023-08-01T04:07:04;24.90;59.30
37794;DHT22;23632;48.826;15.176;2023-08-01T04:09:31;24.90;59.20
37794;DHT22;23632;48.826;15.176;2023-08-01T04:11:58;24.90;59.20
37794;DHT22;23632;48.826;15.176;2023-08-01T04:14:26;24.90;59.10
37794;DHT22;23632;48.826;15.176;2023-08-01T04:16:53;24.90;59.20
37794;DHT22;23632;48.826;15.176;2023-08-01T04:19:20;24.90;59.10
37794;DHT22;23632;48.826;15.176;2023-08-01T04:21:47;24.90;59.20
37794;DHT22;23632;48.826;15.176;2023-08-01T04:24:14;24.90;59.30
37794;DHT22;23632;48.826;15.176;2023-08-01T04:26:41;24.90;59.40
37794;DHT22;23632;48.826;15.176;2023-08-01T04:29:09;24.80;59.30
37794;DHT22;23632;48.826;15.176;2023-08-01T04:31:36;24.80;59.40
37794;DHT22;23632;48.826;15.176;2023-08-01T04:34:03;24.80;59.50
37794;DHT22;23632;48.826;15.176;2023-08-01T04:36:30;24.80;59.50
37794;DHT22;23632;48.826;15.176;2023-08-01T04:38:57;24.80;59.50
37794;DHT22;23632;48.826;15.176;2023-08-01T04:41:24;24.80;59.60
37794;DHT22;23632;48.826;15.176;2023-08-01T04:43:51;24.70;59.60
37794;DHT22;23632;48.826;15.176;2023-08-01T04:46:19;24.70;59.90
37794;DHT22;23632;48.826;15.176;2023-08-01T04:48:46;24.70;59.90
37794;DHT22;23632;48.826;15.176;2023-08-01T04:51:13;24.70;60.00
37794;DHT22;23632;48.826;15.176;2023-08-01T04:53:40;24.70;60.10
37794;DHT22;23632;48.826;15.176;2023-08-01T04:56:07;24.70;60.10
37794;DHT22;23632;48.826;15.176;2023-08-01T04:58:35;24.70;60.20
37794;DHT22;23632;48.826;15.176;2023-08-01T05:01:02;24.70;60.30
37794;DHT22;23632;48.826;15.176;2023-08-01T05:03:29;24.70;60.40
37794;DHT22;23632;48.826;15.176;2023-08-01T05:05:56;24.70;60.40
37794;DHT22;23632;48.826;15.176;2023-08-01T05:08:23;24.70;60.50
37794;DHT22;23632;48.826;15.176;2023-08-01T05:10:50;24.80;60.60
37794;DHT22;23632;48.826;15.176;2023-08-01T05:13:18;24.80;60.50
37794;DHT22;23632;48.826;15.176;2023-08-01T05:15:47;24.80;60.50
37794;DHT22;23632;48.826;15.176;2023-08-01T05:18:16;24.80;60.50
37794;DHT22;23632;48.826;15.176;2023-08-01T05:20:43;24.80;60.60
37794;DHT22;23632;48.826;15.176;2023-08-01T05:23:10;24.80;60.60
37794;DHT22;23632;48.826;15.176;2023-08-01T05:25:38;24.80;60.70
37794;DHT22;23632;48.826;15.176;2023-08-01T05:28:05;24.80;60.60
37794;DHT22;23632;48.826;15.176;2023-08-01T05:30:32;24.80;60.60
37794;DHT22;23632;48.826;15.176;2023-08-01T05:32:59;24.80;60.50
37794;DHT22;23632;48.826;15.176;2023-08-01T05:35:27;24.80;60.60
37794;DHT22;23632;48.826;15.176;2023-08-01T05:37:54;24.80;60.60
37794;DHT22;23632;48.826;15.176;2023-08-01T05:40:21;24.70;60.60
37794;DHT22;23632;48.826;15.176;2023-08-01T05:42:48;24.80;60.70
37794;DHT22;23632;48.826;15.176;2023-08-01T05:45:15;24.80;60.70
37794;DHT22;23632;48.826;15.176;2023-08-01T05:47:43;24.70;60.60
37794;DHT22;23632;48.826;15.176;2023-08-01T05:50:10;24.70;60.70
37794;DHT22;23632;48.826;15.176;2023-08-01T05:52:37;24.70;60.90
37794;DHT22;23632;48.826;15.176;2023-08-01T05:55:04;24.70;60.90
37794;DHT22;23632;48.826;15.176;2023-08-01T05:57:32;24.70;60.90
37794;DHT22;23632;48.826;15.176;2023-08-01T05:59:59;24.70;60.90
37794;DHT22;23632;48.826;15.176;2023-08-01T06:02:26;24.70;60.90
37794;DHT22;23632;48.826;15.176;2023-08-01T06:04:54;24.70;60.90
37794;DHT22;23632;48.826;15.176;2023-08-01T06:07:21;24.70;60.90
37794;DHT22;23632;48.826;15.176;2023-08-01T06:09:50;24.70;61.00
37794;DHT22;23632;48.826;15.176;2023-08-01T06:12:20;24.70;61.00
37794;DHT22;23632;48.826;15.176;2023-08-01T06:14:47;24.70;61.00
37794;DHT22;23632;48.826;15.176;2023-08-01T06:17:15;24.70;61.00
37794;DHT22;23632;48.826;15.176;2023-08-01T06:19:42;24.70;61.10
37794;DHT22;23632;48.826;15.176;2023-08-01T06:22:09;24.60;61.20
37794;DHT22;23632;48.826;15.176;2023-08-01T06:24:36;24.60;61.20
37794;DHT22;23632;48.826;15.176;2023-08-01T06:27:04;24.70;61.30
37794;DHT22;23632;48.826;15.176;2023-08-01T06:29:32;24.70;61.40
37794;DHT22;23632;48.826;15.176;2023-08-01T06:31:59;24.70;61.40
37794;DHT22;23632;48.826;15.176;2023-08-01T06:34:27;24.70;61.50
37794;DHT22;23632;48.826;15.176;2023-08-01T06:36:54;24.70;61.50
37794;DHT22;23632;48.826;15.176;2023-08-01T06:39:21;24.70;61.50
37794;DHT22;23632;48.826;15.176;2023-08-01T06:41:48;24.70;61.50
37794;DHT22;23632;48.826;15.176;2023-08-01T06:44:15;24.70;61.50
37794;DHT22;23632;48.826;15.176;2023-08-01T06:46:42;24.70;61.60
37794;DHT22;23632;48.826;15.176;2023-08-01T06:49:09;24.70;61.70
37794;DHT22;23632;48.826;15.176;2023-08-01T06:51:37;24.70;61.60
37794;DHT22;23632;48.826;15.176;2023-08-01T06:54:04;24.70;61.70
37794;DHT22;23632;48.826;15.176;2023-08-01T06:56:31;24.70;61.70
37794;DHT22;23632;48.826;15.176;2023-08-01T06:58:58;24.70;61.70
37794;DHT22;23632;48.826;15.176;2023-08-01T07:01:25;24.70;61.70
37794;DHT22;23632;48.826;15.176;2023-08-01T07:03:52;24.70;61.70
37794;DHT22;23632;48.826;15.176;2023-08-01T07:06:19;24.70;61.80
37794;DHT22;23632;48.826;15.176;2023-08-01T07:08:47;24.70;61.80
37794;DHT22;23632;48.826;15.176;2023-08-01T07:11:14;24.70;61.80
37794;DHT22;23632;48.826;15.176;2023-08-01T07:13:41;24.70;61.80
37794;DHT22;23632;48.826;15.176;2023-08-01T07:16:08;24.70;61.80
37794;DHT22;23632;48.826;15.176;2023-08-01T07:18:35;24.70;61.80
37794;DHT22;23632;48.826;15.176;2023-08-01T07:21:03;24.70;61.90
37794;DHT22;23632;48.826;15.176;2023-08-01T07:23:33;24.80;61.90
37794;DHT22;23632;48.826;15.176;2023-08-01T07:26:00;24.80;62.10
37794;DHT22;23632;48.826;15.176;2023-08-01T07:28:28;24.80;62.00
37794;DHT22;23632;48.826;15.176;2023-08-01T07:31:03;24.70;61.90
37794;DHT22;23632;48.826;15.176;2023-08-01T07:33:33;24.80;62.10
37794;DHT22;23632;48.826;15.176;2023-08-01T07:36:01;24.80;62.10
37794;DHT22;23632;48.826;15.176;2023-08-01T07:38:28;24.80;62.10
37794;DHT22;23632;48.826;15.176;2023-08-01T07:40:55;24.70;62.10
37794;DHT22;23632;48.826;15.176;2023-08-01T07:43:22;24.70;62.10
37794;DHT22;23632;48.826;15.176;2023-08-01T07:45:55;24.70;62.10
37794;DHT22;23632;48.826;15.176;2023-08-01T07:48:26;24.70;62.30
37794;DHT22;23632;48.826;15.176;2023-08-01T07:50:53;24.80;62.20
37794;DHT22;23632;48.826;15.176;2023-08-01T07:53:21;24.80;62.30
37794;DHT22;23632;48.826;15.176;2023-08-01T07:55:49;24.70;62.20
37794;DHT22;23632;48.826;15.176;2023-08-01T07:58:16;24.80;62.30
37794;DHT22;23632;48.826;15.176;2023-08-01T08:00:43;24.70;62.30
37794;DHT22;23632;48.826;15.176;2023-08-01T08:03:10;24.70;62.20
37794;DHT22;23632;48.826;15.176;2023-08-01T08:05:38;24.70;62.30
37794;DHT22;23632;48.826;15.176;2023-08-01T08:08:06;24.70;62.30
37794;DHT22;23632;48.826;15.176;2023-08-01T08:10:33;24.70;62.30
37794;DHT22;23632;48.826;15.176;2023-08-01T08:13:00;24.70;62.30
37794;DHT22;23632;48.826;15.176;2023-08-01T08:15:27;24.70;62.30
37794;DHT22;23632;48.826;15.176;2023-08-01T08:17:57;24.70;62.30
37794;DHT22;23632;48.826;15.176;2023-08-01T08:20:24;24.70;62.30
37794;DHT22;23632;48.826;15.176;2023-08-01T08:22:52;24.70;62.30
37794;DHT22;23632;48.826;15.176;2023-08-01T08:25:19;24.70;62.30
37794;DHT22;23632;48.826;15.176;2023-08-01T08:27:48;24.70;62.40
37794;DHT22;23632;48.826;15.176;2023-08-01T08:30:15;24.70;62.40
37794;DHT22;23632;48.826;15.176;2023-08-01T08:32:43;24.70;62.50
37794;DHT22;23632;48.826;15.176;2023-08-01T08:35:10;24.70;62.60
37794;DHT22;23632;48.826;15.176;2023-08-01T08:37:37;24.70;62.60
37794;DHT22;23632;48.826;15.176;2023-08-01T08:40:05;24.70;62.60
37794;DHT22;23632;48.826;15.176;2023-08-01T08:42:33;24.70;62.60
37794;DHT22;23632;48.826;15.176;2023-08-01T08:45:02;24.70;62.70
37794;DHT22;23632;48.826;15.176;2023-08-01T08:47:35;24.70;62.70
37794;DHT22;23632;48.826;15.176;2023-08-01T08:50:05;24.70;62.80
37794;DHT22;23632;48.826;15.176;2023-08-01T08:52:33;24.70;62.80
37794;DHT22;23632;48.826;15.176;2023-08-01T08:55:01;24.70;62.70
37794;DHT22;23632;48.826;15.176;2023-08-01T08:57:30;24.70;62.80
37794;DHT22;23632;48.826;15.176;2023-08-01T08:59:58;24.70;62.80
37794;DHT22;23632;48.826;15.176;2023-08-01T09:02:27;24.70;62.90
37794;DHT22;23632;48.826;15.176;2023-08-01T09:04:54;24.70;62.90
37794;DHT22;23632;48.826;15.176;2023-08-01T09:07:24;24.70;62.90
37794;DHT22;23632;48.826;15.176;2023-08-01T09:09:56;24.70;62.90
37794;DHT22;23632;48.826;15.176;2023-08-01T09:12:23;24.70;62.90
37794;DHT22;23632;48.826;15.176;2023-08-01T09:14:51;24.70;62.90
37794;DHT22;23632;48.826;15.176;2023-08-01T09:17:19;24.70;63.00
37794;DHT22;23632;48.826;15.176;2023-08-01T09:19:46;24.70;63.00
37794;DHT22;23632;48.826;15.176;2023-08-01T09:22:14;24.80;63.00
37794;DHT22;23632;48.826;15.176;2023-08-01T09:24:51;24.70;63.00
37794;DHT22;23632;48.826;15.176;2023-08-01T09:27:21;24.70;63.10
37794;DHT22;23632;48.826;15.176;2023-08-01T09:29:51;24.70;63.10
37794;DHT22;23632;48.826;15.176;2023-08-01T09:32:18;24.70;63.00
37794;DHT22;23632;48.826;15.176;2023-08-01T09:34:45;24.70;63.10
37794;DHT22;23632;48.826;15.176;2023-08-01T09:37:13;24.70;63.10
37794;DHT22;23632;48.826;15.176;2023-08-01T09:39:40;24.70;63.10
37794;DHT22;23632;48.826;15.176;2023-08-01T09:42:08;24.70;63.10
37794;DHT22;23632;48.826;15.176;2023-08-01T09:44:35;24.70;63.20
37794;DHT22;23632;48.826;15.176;2023-08-01T09:47:04;24.70;64.00
37794;DHT22;23632;48.826;15.176;2023-08-01T09:49:35;24.70;63.20
37794;DHT22;23632;48.826;15.176;2023-08-01T09:52:04;24.70;63.10
37794;DHT22;23632;48.826;15.176;2023-08-01T09:54:31;24.70;63.10
37794;DHT22;23632;48.826;15.176;2023-08-01T09:56:58;24.70;63.20
37794;DHT22;23632;48.826;15.176;2023-08-01T09:59:27;24.70;63.20
37794;DHT22;23632;48.826;15.176;2023-08-01T10:01:55;24.70;63.20
37794;DHT22;23632;48.826;15.176;2023-08-01T10:04:31;24.70;63.20
37794;DHT22;23632;48.826;15.176;2023-08-01T10:07:08;24.70;63.20
37794;DHT22;23632;48.826;15.176;2023-08-01T10:09:40;24.70;63.30
37794;DHT22;23632;48.826;15.176;2023-08-01T10:12:12;24.70;63.20
37794;DHT22;23632;48.826;15.176;2023-08-01T10:14:40;24.70;63.20
37794;DHT22;23632;48.826;15.176;2023-08-01T10:17:10;24.70;63.30
37794;DHT22;23632;48.826;15.176;2023-08-01T10:19:38;24.70;63.30
37794;DHT22;23632;48.826;15.176;2023-08-01T10:22:06;24.70;63.30
37794;DHT22;23632;48.826;15.176;2023-08-01T10:24:34;24.70;63.40
37794;DHT22;23632;48.826;15.176;2023-08-01T10:27:29;24.70;63.30
37794;DHT22;23632;48.826;15.176;2023-08-01T10:29:57;24.70;63.50
37794;DHT22;23632;48.826;15.176;2023-08-01T10:32:32;24.80;63.50
37794;DHT22;23632;48.826;15.176;2023-08-01T10:35:01;24.80;63.60
37794;DHT22;23632;48.826;15.176;2023-08-01T10:37:44;24.70;63.50
37794;DHT22;23632;48.826;15.176;2023-08-01T10:40:15;24.80;63.60
37794;DHT22;23632;48.826;15.176;2023-08-01T10:42:44;24.80;63.60
37794;DHT22;23632;48.826;15.176;2023-08-01T10:45:22;24.80;63.60
37794;DHT22;23632;48.826;15.176;2023-08-01T10:47:53;24.80;63.70
37794;DHT22;23632;48.826;15.176;2023-08-01T10:50:20;24.80;63.60
37794;DHT22;23632;48.826;15.176;2023-08-01T10:52:47;24.80;63.60
37794;DHT22;23632;48.826;15.176;2023-08-01T10:55:15;24.80;63.70
37794;DHT22;23632;48.826;15.176;2023-08-01T10:57:48;24.80;63.70
37794;DHT22;23632;48.826;15.176;2023-08-01T11:00:17;24.80;63.80
37794;DHT22;23632;48.826;15.176;2023-08-01T11:02:50;24.80;63.80
37794;DHT22;23632;48.826;15.176;2023-08-01T11:05:20;24.80;63.80
37794;DHT22;23632;48.826;15.176;2023-08-01T11:07:54;24.90;63.80
37794;DHT22;23632;48.826;15.176;2023-08-01T11:10:29;24.80;63.90
37794;DHT22;23632;48.826;15.176;2023-08-01T11:12:58;24.90;63.90
37794;DHT22;23632;48.826;15.176;2023-08-01T11:15:25;24.90;63.90
37794;DHT22;23632;48.826;15.176;2023-08-01T11:17:55;24.90;63.80
37794;DHT22;23632;48.826;15.176;2023-08-01T11:20:24;24.90;63.90
37794;DHT22;23632;48.826;15.176;2023-08-01T11:23:00;24.80;63.80
37794;DHT22;23632;48.826;15.176;2023-08-01T11:25:39;24.90;63.90
37794;DHT22;23632;48.826;15.176;2023-08-01T11:28:12;24.90;64.00
37794;DHT22;23632;48.826;15.176;2023-08-01T11:30:41;24.90;64.80
37794;DHT22;23632;48.826;15.176;2023-08-01T11:33:21;24.90;63.80
37794;DHT22;23632;48.826;15.176;2023-08-01T11:35:53;24.90;64.00
37794;DHT22;23632;48.826;15.176;2023-08-01T11:38:26;24.80;63.90
37794;DHT22;23632;48.826;15.176;2023-08-01T11:41:00;24.90;63.90
37794;DHT22;23632;48.826;15.176;2023-08-01T11:43:41;24.90;64.00
37794;DHT22;23632;48.826;15.176;2023-08-01T11:46:09;24.80;63.90
37794;DHT22;23632;48.826;15.176;2023-08-01T11:48:36;24.90;63.80
37794;DHT22;23632;48.826;15.176;2023-08-01T11:51:04;24.90;63.90
37794;DHT22;23632;48.826;15.176;2023-08-01T11:53:31;24.80;63.80
37794;DHT22;23632;48.826;15.176;2023-08-01T11:56:05;24.80;63.80
37794;DHT22;23632;48.826;15.176;2023-08-01T11:58:41;24.90;63.90
37794;DHT22;23632;48.826;15.176;2023-08-01T12:01:12;24.80;63.80
37794;DHT22;23632;48.826;15.176;2023-08-01T12:03:52;24.90;64.00
37794;DHT22;23632;48.826;15.176;2023-08-01T12:06:22;24.80;63.90
37794;DHT22;23632;48.826;15.176;2023-08-01T12:08:52;24.80;63.90
37794;DHT22;23632;48.826;15.176;2023-08-01T12:11:23;24.80;63.80
37794;DHT22;23632;48.826;15.176;2023-08-01T12:14:11;24.80;63.90
37794;DHT22;23632;48.826;15.176;2023-08-01T12:16:42;24.80;63.90
37794;DHT22;23632;48.826;15.176;2023-08-01T12:19:20;24.90;63.90
37794;DHT22;23632;48.826;15.176;2023-08-01T12:21:48;24.80;63.90
37794;DHT22;23632;48.826;15.176;2023-08-01T12:24:16;24.80;63.90
37794;DHT22;23632;48.826;15.176;2023-08-01T12:26:43;24.80;63.90
37794;DHT22;23632;48.826;15.176;2023-08-01T12:29:11;24.80;63.90
37794;DHT22;23632;48.826;15.176;2023-08-01T12:31:39;24.80;64.00
37794;DHT22;23632;48.826;15.176;2023-08-01T12:34:06;24.80;64.90
37794;DHT22;23632;48.826;15.176;2023-08-01T12:36:33;24.80;64.00
37794;DHT22;23632;48.826;15.176;2023-08-01T12:39:00;24.80;63.90
37794;DHT22;23632;48.826;15.176;2023-08-01T12:41:27;24.80;64.00
37794;DHT22;23632;48.826;15.176;2023-08-01T12:43:54;24.80;64.00
37794;DHT22;23632;48.826;15.176;2023-08-01T12:46:22;24.80;64.00
37794;DHT22;23632;48.826;15.176;2023-08-01T12:48:49;24.80;64.00
37794;DHT22;23632;48.826;15.176;2023-08-01T12:51:16;24.80;64.00
37794;DHT22;23632;48.826;15.176;2023-08-01T12:53:43;24.80;64.10
37794;DHT22;23632;48.826;15.176;2023-08-01T12:56:13;24.70;64.00
37794;DHT22;23632;48.826;15.176;2023-08-01T12:58:40;24.80;64.10
37794;DHT22;23632;48.826;15.176;2023-08-01T13:01:07;24.80;64.20
37794;DHT22;23632;48.826;15.176;2023-08-01T13:03:34;24.70;64.00
37794;DHT22;23632;48.826;15.176;2023-08-01T13:06:01;24.70;64.00
37794;DHT22;23632;48.826;15.176;2023-08-01T13:08:29;24.70;64.00
37794;DHT22;23632;48.826;15.176;2023-08-01T13:10:56;24.70;64.10
37794;DHT22;23632;48.826;15.176;2023-08-01T13:13:26;24.80;64.20
37794;DHT22;23632;48.826;15.176;2023-08-01T13:15:55;24.70;64.10
37794;DHT22;23632;48.826;15.176;2023-08-01T13:18:23;24.70;64.10
37794;DHT22;23632;48.826;15.176;2023-08-01T13:20:50;24.80;64.30
37794;DHT22;23632;48.826;15.176;2023-08-01T13:23:17;24.80;64.30
37794;DHT22;23632;48.826;15.176;2023-08-01T13:25:44;24.70;64.30
37794;DHT22;23632;48.826;15.176;2023-08-01T13:28:14;24.70;64.30
37794;DHT22;23632;48.826;15.176;2023-08-01T13:30:41;24.70;64.30
37794;DHT22;23632;48.826;15.176;2023-08-01T13:33:08;24.70;64.30
37794;DHT22;23632;48.826;15.176;2023-08-01T13:35:35;24.80;64.30
37794;DHT22;23632;48.826;15.176;2023-08-01T13:38:03;24.70;64.30
37794;DHT22;23632;48.826;15.176;2023-08-01T13:40:31;24.80;64.40
37794;DHT22;23632;48.826;15.176;2023-08-01T13:42:59;24.70;64.30
37794;DHT22;23632;48.826;15.176;2023-08-01T13:45:26;24.70;64.30
37794;DHT22;23632;48.826;15.176;2023-08-01T13:47:57;24.70;64.30
37794;DHT22;23632;48.826;15.176;2023-08-01T13:50:25;24.70;64.30
37794;DHT22;23632;48.826;15.176;2023-08-01T13:52:53;24.70;64.30
37794;DHT22;23632;48.826;15.176;2023-08-01T13:55:20;24.70;64.40
37794;DHT22;23632;48.826;15.176;2023-08-01T13:57:48;24.70;64.50
37794;DHT22;23632;48.826;15.176;2023-08-01T14:00:15;24.70;64.40
37794;DHT22;23632;48.826;15.176;2023-08-01T14:02:42;24.70;64.40
37794;DHT22;23632;48.826;15.176;2023-08-01T14:05:10;24.70;64.50
37794;DHT22;23632;48.826;15.176;2023-08-01T14:07:37;24.70;64.60
37794;DHT22;23632;48.826;15.176;2023-08-01T14:10:09;24.70;64.40
37794;DHT22;23632;48.826;15.176;2023-08-01T14:12:37;24.70;64.40
37794;DHT22;23632;48.826;15.176;2023-08-01T14:15:05;24.70;64.50
37794;DHT22;23632;48.826;15.176;2023-08-01T14:17:33;24.70;64.50
37794;DHT22;23632;48.826;15.176;2023-08-01T14:20:01;24.70;65.40
37794;DHT22;23632;48.826;15.176;2023-08-01T14:22:31;24.70;64.40
37794;DHT22;23632;48.826;15.176;2023-08-01T14:24:58;24.70;64.50
37794;DHT22;23632;48.826;15.176;2023-08-01T14:27:25;24.70;64.50
37794;DHT22;23632;48.826;15.176;2023-08-01T14:29:52;24.70;64.40
37794;DHT22;23632;48.826;15.176;2023-08-01T14:32:19;24.70;64.60
37794;DHT22;23632;48.826;15.176;2023-08-01T14:34:47;24.60;64.50
37794;DHT22;23632;48.826;15.176;2023-08-01T14:37:14;24.60;64.50
37794;DHT22;23632;48.826;15.176;2023-08-01T14:39:41;24.60;64.50
37794;DHT22;23632;48.826;15.176;2023-08-01T14:42:08;24.60;64.50
37794;DHT22;23632;48.826;15.176;2023-08-01T14:44:35;24.60;64.60
37794;DHT22;23632;48.826;15.176;2023-08-01T14:47:02;24.60;64.60
37794;DHT22;23632;48.826;15.176;2023-08-01T14:49:30;24.60;64.60
37794;DHT22;23632;48.826;15.176;2023-08-01T14:51:57;24.60;64.50
37794;DHT22;23632;48.826;15.176;2023-08-01T14:54:24;24.60;64.60
37794;DHT22;23632;48.826;15.176;2023-08-01T14:56:55;24.60;64.60
37794;DHT22;23632;48.826;15.176;2023-08-01T14:59:22;24.60;64.70
37794;DHT22;23632;48.826;15.176;2023-08-01T15:01:50;24.60;64.70
37794;DHT22;23632;48.826;15.176;2023-08-01T15:04:17;24.60;64.80
37794;DHT22;23632;48.826;15.176;2023-08-01T15:06:45;24.50;64.60
37794;DHT22;23632;48.826;15.176;2023-08-01T15:09:12;24.60;64.70
37794;DHT22;23632;48.826;15.176;2023-08-01T15:11:39;24.60;64.80
37794;DHT22;23632;48.826;15.176;2023-08-01T15:14:07;24.60;64.90
37794;DHT22;23632;48.826;15.176;2023-08-01T15:16:35;24.60;64.80
37794;DHT22;23632;48.826;15.176;2023-08-01T15:19:02;24.60;64.80
37794;DHT22;23632;48.826;15.176;2023-08-01T15:21:29;24.60;64.80